sensor_id;sensor_type;location;lat;lon;timestamp;pressure;altitude;pressure_sealevel;temperature;humidity
7918;BME280;4004;42.624;23.386;2022-12-11T00:02:02;92127.72;;;10.85;100.00
7918;BME280;4004;42.624;23.386;2022-12-11T00:04:29;92120.78;;;10.88;100.00
7918;BME280;4004;42.624;23.386;2022-12-11T00:06:55;92129.34;;;10.79;100.00
7918;BME280;4004;42.624;23.386;2022-12-11T00:09:24;92067.69;;;10.37;100.00
7918;BME280;4004;42.624;23.386;2022-12-11T00:11:50;92102.66;;;10.65;100.00
7918;BME280;4004;42.624;23.386;2022-12-11T00:14:17;92095.25;;;10.72;100.00
7918;BME280;4004;42.624;23.386;2022-12-11T00:16:47;92108.69;;;10.72;100.00
7918;BME280;4004;42.624;23.386;2022-12-11T00:19:14;92119.38;;;10.76;100.00
7918;BME280;4004;42.624;23.386;2022-12-11T00:21:41;92097.13;;;10.75;100.00
7918;BME280;4004;42.624;23.386;2022-12-11T00:24:08;92090.13;;;10.82;100.00
7918;BME280;4004;42.624;23.386;2022-12-11T00:26:37;92102.00;;;10.84;100.00
7918;BME280;4004;42.624;23.386;2022-12-11T00:29:04;92109.16;;;10.67;100.00
7918;BME280;4004;42.624;23.386;2022-12-11T00:31:32;92106.59;;;10.56;100.00
7918;BME280;4004;42.624;23.386;2022-12-11T00:34:00;92101.72;;;10.48;100.00
7918;BME280;4004;42.624;23.386;2022-12-11T00:36:27;92122.13;;;10.42;100.00
7918;BME280;4004;42.624;23.386;2022-12-11T00:38:54;92097.16;;;10.45;100.00
7918;BME280;4004;42.624;23.386;2022-12-11T00:41:21;92091.78;;;10.45;100.00
7918;BME280;4004;42.624;23.386;2022-12-11T00:43:49;92084.88;;;10.44;100.00
7918;BME280;4004;42.624;23.386;2022-12-11T00:46:16;92104.78;;;10.50;100.00
7918;BME280;4004;42.624;23.386;2022-12-11T00:48:43;92081.00;;;10.48;100.00
7918;BME280;4004;42.624;23.386;2022-12-11T00:51:10;92099.31;;;10.57;100.00
7918;BME280;4004;42.624;23.386;2022-12-11T00:53:37;92089.81;;;10.49;100.00
7918;BME280;4004;42.624;23.386;2022-12-11T00:56:09;92098.28;;;10.47;100.00
7918;BME280;4004;42.624;23.386;2022-12-11T00:58:36;92101.34;;;10.49;100.00
7918;BME280;4004;42.624;23.386;2022-12-11T01:01:10;92115.25;;;10.41;100.00
7918;BME280;4004;42.624;23.386;2022-12-11T01:03:37;92115.53;;;10.50;100.00
7918;BME280;4004;42.624;23.386;2022-12-11T01:06:04;92111.25;;;10.52;100.00
7918;BME280;4004;42.624;23.386;2022-12-11T01:08:31;92109.66;;;10.58;100.00
7918;BME280;4004;42.624;23.386;2022-12-11T01:11:02;92092.34;;;10.60;100.00
7918;BME280;4004;42.624;23.386;2022-12-11T01:13:28;92118.88;;;10.57;100.00
7918;BME280;4004;42.624;23.386;2022-12-11T01:15:55;92096.56;;;10.61;100.00
7918;BME280;4004;42.624;23.386;2022-12-11T01:18:23;92092.72;;;10.62;100.00
7918;BME280;4004;42.624;23.386;2022-12-11T01:20:50;92095.03;;;10.60;100.00
7918;BME280;4004;42.624;23.386;2022-12-11T01:23:17;92117.91;;;10.71;100.00
7918;BME280;4004;42.624;23.386;2022-12-11T01:25:44;92114.69;;;10.53;100.00
7918;BME280;4004;42.624;23.386;2022-12-11T01:28:11;92131.16;;;10.58;100.00
7918;BME280;4004;42.624;23.386;2022-12-11T01:30:39;92147.75;;;10.50;100.00
7918;BME280;4004;42.624;23.386;2022-12-11T01:33:06;92132.53;;;10.70;100.00
7918;BME280;4004;42.624;23.386;2022-12-11T01:35:34;92130.81;;;10.84;100.00
7918;BME280;4004;42.624;23.386;2022-12-11T01:38:01;92116.19;;;10.85;100.00
7918;BME280;4004;42.624;23.386;2022-12-11T01:40:29;92119.25;;;10.87;100.00
7918;BME280;4004;42.624;23.386;2022-12-11T01:42:55;92098.06;;;10.92;100.00
7918;BME280;4004;42.624;23.386;2022-12-11T01:45:27;92082.38;;;10.87;100.00
7918;BME280;4004;42.624;23.386;2022-12-11T01:47:57;92108.56;;;10.83;100.00
7918;BME280;4004;42.624;23.386;2022-12-11T01:50:26;92110.00;;;10.61;100.00
7918;BME280;4004;42.624;23.386;2022-12-11T01:52:55;92121.50;;;10.61;100.00
7918;BME280;4004;42.624;23.386;2022-12-11T01:55:22;92083.72;;;10.45;100.00
7918;BME280;4004;42.624;23.386;2022-12-11T01:57:50;92096.53;;;10.33;100.00
7918;BME280;4004;42.624;23.386;2022-12-11T02:00:18;92132.25;;;10.30;100.00
7918;BME280;4004;42.624;23.386;2022-12-11T02:02:46;92118.38;;;10.35;100.00
7918;BME280;4004;42.624;23.386;2022-12-11T02:05:13;92074.13;;;10.74;100.00
7918;BME280;4004;42.624;23.386;2022-12-11T02:07:42;92090.19;;;11.05;100.00
7918;BME280;4004;42.624;23.386;2022-12-11T02:10:13;92084.59;;;11.19;100.00
7918;BME280;4004;42.624;23.386;2022-12-11T02:12:51;92074.88;;;11.26;100.00
7918;BME280;4004;42.624;23.386;2022-12-11T02:15:25;92061.66;;;11.58;100.00
7918;BME280;4004;42.624;23.386;2022-12-11T02:17:59;92076.34;;;11.97;100.00
7918;BME280;4004;42.624;23.386;2022-12-11T02:20:32;92072.03;;;12.03;100.00
7918;BME280;4004;42.624;23.386;2022-12-11T02:26:17;92039.41;;;11.98;100.00
7918;BME280;4004;42.624;23.386;2022-12-11T02:28:52;92046.19;;;12.26;100.00
7918;BME280;4004;42.624;23.386;2022-12-11T02:31:23;92037.13;;;12.36;100.00
7918;BME280;4004;42.624;23.386;2022-12-11T02:33:57;92021.72;;;12.37;100.00
7918;BME280;4004;42.624;23.386;2022-12-11T02:36:28;92047.91;;;12.36;100.00
7918;BME280;4004;42.624;23.386;2022-12-11T02:38:57;92039.25;;;12.45;100.00
7918;BME280;4004;42.624;23.386;2022-12-11T02:41:27;92008.78;;;12.48;100.00
7918;BME280;4004;42.624;23.386;2022-12-11T02:43:56;92010.81;;;12.60;100.00
7918;BME280;4004;42.624;23.386;2022-12-11T02:46:25;92005.34;;;12.64;100.00
7918;BME280;4004;42.624;23.386;2022-12-11T02:48:53;92029.44;;;12.71;100.00
7918;BME280;4004;42.624;23.386;2022-12-11T02:51:24;92014.34;;;12.74;100.00
7918;BME280;4004;42.624;23.386;2022-12-11T02:53:55;92015.97;;;12.71;100.00
7918;BME280;4004;42.624;23.386;2022-12-11T02:56:26;92014.63;;;12.79;100.00
7918;BME280;4004;42.624;23.386;2022-12-11T02:59:00;92045.38;;;12.82;100.00
7918;BME280;4004;42.624;23.386;2022-12-11T03:01:29;92030.75;;;12.83;100.00
7918;BME280;4004;42.624;23.386;2022-12-11T03:03:56;92037.38;;;12.78;100.00
7918;BME280;4004;42.624;23.386;2022-12-11T03:06:29;92052.56;;;12.89;100.00
7918;BME280;4004;42.624;23.386;2022-12-11T03:08:57;92054.84;;;12.90;100.00
7918;BME280;4004;42.624;23.386;2022-12-11T03:11:24;92046.91;;;12.99;100.00
7918;BME280;4004;42.624;23.386;2022-12-11T03:13:51;92047.78;;;12.96;100.00
7918;BME280;4004;42.624;23.386;2022-12-11T03:16:24;92033.03;;;13.01;100.00
7918;BME280;4004;42.624;23.386;2022-12-11T03:19:01;92038.66;;;13.06;100.00
7918;BME280;4004;42.624;23.386;2022-12-11T03:21:33;92053.75;;;13.04;100.00
7918;BME280;4004;42.624;23.386;2022-12-11T03:24:05;92032.34;;;12.97;100.00
7918;BME280;4004;42.624;23.386;2022-12-11T03:26:37;92040.84;;;12.95;100.00
7918;BME280;4004;42.624;23.386;2022-12-11T03:29:11;92039.34;;;12.94;100.00
7918;BME280;4004;42.624;23.386;2022-12-11T03:31:42;92047.84;;;13.09;100.00
7918;BME280;4004;42.624;23.386;2022-12-11T03:34:15;92055.69;;;13.03;100.00
7918;BME280;4004;42.624;23.386;2022-12-11T03:36:44;92030.97;;;12.89;100.00
7918;BME280;4004;42.624;23.386;2022-12-11T03:39:17;92056.44;;;13.04;100.00
7918;BME280;4004;42.624;23.386;2022-12-11T03:41:47;92057.41;;;13.30;100.00
7918;BME280;4004;42.624;23.386;2022-12-11T03:44:17;92048.19;;;13.27;100.00
7918;BME280;4004;42.624;23.386;2022-12-11T03:46:48;92060.50;;;13.45;100.00
7918;BME280;4004;42.624;23.386;2022-12-11T03:49:21;92063.50;;;13.34;100.00
7918;BME280;4004;42.624;23.386;2022-12-11T03:51:50;92062.38;;;13.32;100.00
7918;BME280;4004;42.624;23.386;2022-12-11T03:54:18;92055.63;;;13.23;100.00
7918;BME280;4004;42.624;23.386;2022-12-11T03:56:46;92065.56;;;13.26;100.00
7918;BME280;4004;42.624;23.386;2022-12-11T03:59:13;92068.25;;;13.26;100.00
7918;BME280;4004;42.624;23.386;2022-12-11T04:01:40;92067.06;;;13.11;100.00
7918;BME280;4004;42.624;23.386;2022-12-11T04:04:08;92076.19;;;13.17;100.00
7918;BME280;4004;42.624;23.386;2022-12-11T04:06:35;92074.22;;;13.18;100.00
7918;BME280;4004;42.624;23.386;2022-12-11T04:09:02;92071.47;;;13.21;100.00
7918;BME280;4004;42.624;23.386;2022-12-11T04:11:29;92076.97;;;13.51;100.00
7918;BME280;4004;42.624;23.386;2022-12-11T04:14:03;92102.84;;;13.64;98.92
7918;BME280;4004;42.624;23.386;2022-12-11T04:16:47;92104.69;;;13.84;96.91
7918;BME280;4004;42.624;23.386;2022-12-11T04:19:15;92106.69;;;13.96;96.83
7918;BME280;4004;42.624;23.386;2022-12-11T04:21:59;92113.06;;;14.02;98.50
7918;BME280;4004;42.624;23.386;2022-12-11T04:24:52;92122.91;;;13.96;97.90
7918;BME280;4004;42.624;23.386;2022-12-11T04:27:19;92124.94;;;13.92;99.51
7918;BME280;4004;42.624;23.386;2022-12-11T04:30:00;92122.50;;;13.81;99.68
7918;BME280;4004;42.624;23.386;2022-12-11T04:32:27;92134.06;;;13.82;99.16
7918;BME280;4004;42.624;23.386;2022-12-11T04:34:55;92127.56;;;13.79;100.00
7918;BME280;4004;42.624;23.386;2022-12-11T04:37:21;92144.94;;;13.78;100.00
7918;BME280;4004;42.624;23.386;2022-12-11T04:39:48;92162.22;;;13.64;100.00
7918;BME280;4004;42.624;23.386;2022-12-11T04:42:15;92171.53;;;13.63;100.00
7918;BME280;4004;42.624;23.386;2022-12-11T04:44:42;92140.91;;;13.70;95.94
7918;BME280;4004;42.624;23.386;2022-12-11T04:47:09;92148.22;;;13.86;94.82
7918;BME280;4004;42.624;23.386;2022-12-11T04:49:35;92154.13;;;13.97;94.56
7918;BME280;4004;42.624;23.386;2022-12-11T04:52:04;92161.97;;;13.92;96.29
7918;BME280;4004;42.624;23.386;2022-12-11T04:54:31;92160.03;;;13.92;95.20
7918;BME280;4004;42.624;23.386;2022-12-11T04:56:58;92164.66;;;13.92;87.24
7918;BME280;4004;42.624;23.386;2022-12-11T04:59:25;92179.69;;;14.09;83.48
7918;BME280;4004;42.624;23.386;2022-12-11T05:01:52;92168.47;;;14.10;82.46
7918;BME280;4004;42.624;23.386;2022-12-11T05:04:18;92170.88;;;14.21;80.78
7918;BME280;4004;42.624;23.386;2022-12-11T05:06:47;92171.31;;;14.20;83.23
7918;BME280;4004;42.624;23.386;2022-12-11T05:09:16;92173.78;;;14.14;83.02
7918;BME280;4004;42.624;23.386;2022-12-11T05:11:43;92174.00;;;14.36;76.93
7918;BME280;4004;42.624;23.386;2022-12-11T05:14:10;92201.16;;;14.45;75.87
7918;BME280;4004;42.624;23.386;2022-12-11T05:16:36;92188.28;;;14.66;73.50
7918;BME280;4004;42.624;23.386;2022-12-11T05:19:03;92172.75;;;14.83;71.45
7918;BME280;4004;42.624;23.386;2022-12-11T05:21:30;92192.16;;;14.94;70.68
7918;BME280;4004;42.624;23.386;2022-12-11T05:23:57;92195.03;;;14.87;70.67
7918;BME280;4004;42.624;23.386;2022-12-11T05:26:25;92196.13;;;14.77;71.58
7918;BME280;4004;42.624;23.386;2022-12-11T05:28:53;92206.06;;;14.80;70.48
7918;BME280;4004;42.624;23.386;2022-12-11T05:31:22;92205.31;;;14.79;70.58
7918;BME280;4004;42.624;23.386;2022-12-11T05:33:49;92206.94;;;14.89;68.86
7918;BME280;4004;42.624;23.386;2022-12-11T05:36:18;92206.44;;;14.95;68.90
7918;BME280;4004;42.624;23.386;2022-12-11T05:38:45;92215.97;;;14.99;67.61
7918;BME280;4004;42.624;23.386;2022-12-11T05:41:14;92196.41;;;15.08;67.11
7918;BME280;4004;42.624;23.386;2022-12-11T05:43:43;92173.13;;;15.10;66.59
7918;BME280;4004;42.624;23.386;2022-12-11T05:46:12;92166.63;;;15.08;66.80
7918;BME280;4004;42.624;23.386;2022-12-11T05:48:39;92162.63;;;15.00;68.04
7918;BME280;4004;42.624;23.386;2022-12-11T05:51:07;92172.06;;;15.08;67.25
7918;BME280;4004;42.624;23.386;2022-12-11T05:53:35;92183.19;;;14.97;68.91
7918;BME280;4004;42.624;23.386;2022-12-11T05:56:03;92160.47;;;15.07;66.89
7918;BME280;4004;42.624;23.386;2022-12-11T05:58:30;92174.97;;;15.13;67.06
7918;BME280;4004;42.624;23.386;2022-12-11T06:00:59;92154.28;;;15.07;67.91
7918;BME280;4004;42.624;23.386;2022-12-11T06:03:26;92145.22;;;15.01;66.70
7918;BME280;4004;42.624;23.386;2022-12-11T06:05:53;92163.59;;;15.06;67.15
7918;BME280;4004;42.624;23.386;2022-12-11T06:08:20;92165.00;;;14.98;68.08
7918;BME280;4004;42.624;23.386;2022-12-11T06:10:47;92171.09;;;15.15;65.45
7918;BME280;4004;42.624;23.386;2022-12-11T06:13:15;92167.31;;;15.12;67.50
7918;BME280;4004;42.624;23.386;2022-12-11T06:15:42;92163.38;;;15.13;65.11
7918;BME280;4004;42.624;23.386;2022-12-11T06:18:10;92166.75;;;15.43;59.12
7918;BME280;4004;42.624;23.386;2022-12-11T06:20:36;92166.00;;;15.55;62.25
7918;BME280;4004;42.624;23.386;2022-12-11T06:23:03;92183.00;;;15.55;61.00
7918;BME280;4004;42.624;23.386;2022-12-11T06:25:30;92210.41;;;15.45;60.69
7918;BME280;4004;42.624;23.386;2022-12-11T06:27:57;92205.00;;;15.58;61.08
7918;BME280;4004;42.624;23.386;2022-12-11T06:30:23;92214.75;;;15.55;61.41
7918;BME280;4004;42.624;23.386;2022-12-11T06:32:50;92218.00;;;15.50;62.57
7918;BME280;4004;42.624;23.386;2022-12-11T06:35:18;92229.16;;;15.52;61.86
7918;BME280;4004;42.624;23.386;2022-12-11T06:37:45;92233.38;;;15.53;63.41
7918;BME280;4004;42.624;23.386;2022-12-11T06:40:12;92220.38;;;15.48;64.10
7918;BME280;4004;42.624;23.386;2022-12-11T06:42:38;92177.69;;;15.26;65.17
7918;BME280;4004;42.624;23.386;2022-12-11T06:45:06;92207.50;;;15.39;65.27
7918;BME280;4004;42.624;23.386;2022-12-11T06:47:33;92218.97;;;15.43;62.70
7918;BME280;4004;42.624;23.386;2022-12-11T06:50:00;92227.31;;;15.49;64.23
7918;BME280;4004;42.624;23.386;2022-12-11T06:52:28;92213.56;;;15.43;66.36
7918;BME280;4004;42.624;23.386;2022-12-11T06:54:55;92216.38;;;15.40;64.85
7918;BME280;4004;42.624;23.386;2022-12-11T06:57:22;92217.34;;;15.46;65.13
7918;BME280;4004;42.624;23.386;2022-12-11T06:59:49;92229.47;;;15.41;65.94
7918;BME280;4004;42.624;23.386;2022-12-11T07:02:17;92235.22;;;15.43;66.85
7918;BME280;4004;42.624;23.386;2022-12-11T07:04:44;92226.66;;;15.45;65.37
7918;BME280;4004;42.624;23.386;2022-12-11T07:07:11;92239.00;;;15.46;66.64
7918;BME280;4004;42.624;23.386;2022-12-11T07:09:39;92236.41;;;15.55;65.22
7918;BME280;4004;42.624;23.386;2022-12-11T07:12:06;92221.03;;;15.52;67.34
7918;BME280;4004;42.624;23.386;2022-12-11T07:14:33;92205.78;;;15.45;67.54
7918;BME280;4004;42.624;23.386;2022-12-11T07:17:01;92215.09;;;15.57;67.52
7918;BME280;4004;42.624;23.386;2022-12-11T07:19:27;92224.09;;;15.54;67.65
7918;BME280;4004;42.624;23.386;2022-12-11T07:21:54;92218.13;;;15.59;66.42
7918;BME280;4004;42.624;23.386;2022-12-11T07:24:21;92226.56;;;15.61;65.99
7918;BME280;4004;42.624;23.386;2022-12-11T07:26:49;92222.66;;;15.49;66.80
7918;BME280;4004;42.624;23.386;2022-12-11T07:29:17;92230.13;;;15.58;66.94
7918;BME280;4004;42.624;23.386;2022-12-11T07:31:43;92231.66;;;15.46;67.81
7918;BME280;4004;42.624;23.386;2022-12-11T07:34:11;92246.50;;;15.54;65.85
7918;BME280;4004;42.624;23.386;2022-12-11T07:36:38;92242.72;;;15.52;67.09
7918;BME280;4004;42.624;23.386;2022-12-11T07:39:05;92247.00;;;15.49;67.80
7918;BME280;4004;42.624;23.386;2022-12-11T07:41:32;92260.47;;;15.53;65.36
7918;BME280;4004;42.624;23.386;2022-12-11T07:44:01;92261.66;;;15.52;65.89
7918;BME280;4004;42.624;23.386;2022-12-11T07:46:30;92262.31;;;15.43;65.49
7918;BME280;4004;42.624;23.386;2022-12-11T07:48:57;92259.59;;;15.43;66.96
7918;BME280;4004;42.624;23.386;2022-12-11T07:51:26;92276.91;;;15.46;67.22
7918;BME280;4004;42.624;23.386;2022-12-11T07:53:55;92276.28;;;15.54;67.75
7918;BME280;4004;42.624;23.386;2022-12-11T07:56:22;92281.59;;;15.45;66.93
7918;BME280;4004;42.624;23.386;2022-12-11T07:58:49;92286.03;;;15.52;66.89
7918;BME280;4004;42.624;23.386;2022-12-11T08:01:19;92261.63;;;15.39;66.29
7918;BME280;4004;42.624;23.386;2022-12-11T08:03:47;92262.84;;;15.51;66.78
7918;BME280;4004;42.624;23.386;2022-12-11T08:06:14;92271.97;;;15.57;67.69
7918;BME280;4004;42.624;23.386;2022-12-11T08:08:40;92280.50;;;15.55;67.39
7918;BME280;4004;42.624;23.386;2022-12-11T08:11:08;92289.72;;;15.58;69.08
7918;BME280;4004;42.624;23.386;2022-12-11T08:13:35;92287.31;;;15.60;69.43
7918;BME280;4004;42.624;23.386;2022-12-11T08:16:03;92288.63;;;15.55;70.25
7918;BME280;4004;42.624;23.386;2022-12-11T08:18:31;92280.41;;;15.59;69.34
7918;BME280;4004;42.624;23.386;2022-12-11T08:21:03;92282.78;;;15.57;69.28
7918;BME280;4004;42.624;23.386;2022-12-11T08:23:30;92288.63;;;15.55;69.44
7918;BME280;4004;42.624;23.386;2022-12-11T08:25:56;92279.19;;;15.60;69.52
7918;BME280;4004;42.624;23.386;2022-12-11T08:28:23;92278.16;;;15.70;68.75
7918;BME280;4004;42.624;23.386;2022-12-11T08:30:50;92290.09;;;15.73;68.52
7918;BME280;4004;42.624;23.386;2022-12-11T08:33:16;92279.31;;;15.69;69.33
7918;BME280;4004;42.624;23.386;2022-12-11T08:35:45;92280.78;;;15.74;68.72
7918;BME280;4004;42.624;23.386;2022-12-11T08:38:11;92277.06;;;15.81;68.94
7918;BME280;4004;42.624;23.386;2022-12-11T08:40:38;92278.06;;;15.87;67.80
7918;BME280;4004;42.624;23.386;2022-12-11T08:43:05;92282.72;;;15.86;68.10
7918;BME280;4004;42.624;23.386;2022-12-11T08:45:32;92271.66;;;15.81;67.64
7918;BME280;4004;42.624;23.386;2022-12-11T08:47:59;92276.22;;;15.71;68.64
7918;BME280;4004;42.624;23.386;2022-12-11T08:50:25;92275.09;;;15.68;68.77
7918;BME280;4004;42.624;23.386;2022-12-11T08:52:54;92270.66;;;15.62;69.06
7918;BME280;4004;42.624;23.386;2022-12-11T08:55:20;92264.69;;;15.67;69.50
7918;BME280;4004;42.624;23.386;2022-12-11T08:57:47;92270.22;;;15.63;68.52
7918;BME280;4004;42.624;23.386;2022-12-11T09:00:15;92256.56;;;15.67;68.31
7918;BME280;4004;42.624;23.386;2022-12-11T09:02:42;92272.66;;;15.74;69.03
7918;BME280;4004;42.624;23.386;2022-12-11T09:05:09;92271.34;;;15.79;69.92
7918;BME280;4004;42.624;23.386;2022-12-11T09:07:36;92267.34;;;15.83;69.63
7918;BME280;4004;42.624;23.386;2022-12-11T09:10:07;92258.03;;;15.97;68.47
7918;BME280;4004;42.624;23.386;2022-12-11T09:12:35;92272.31;;;15.98;68.20
7918;BME280;4004;42.624;23.386;2022-12-11T09:15:02;92260.50;;;16.04;67.48
7918;BME280;4004;42.624;23.386;2022-12-11T09:17:29;92254.75;;;16.15;67.11
7918;BME280;4004;42.624;23.386;2022-12-11T09:19:55;92254.53;;;16.22;66.92
7918;BME280;4004;42.624;23.386;2022-12-11T09:22:22;92248.78;;;16.20;65.52
7918;BME280;4004;42.624;23.386;2022-12-11T09:24:49;92247.69;;;16.17;64.51
7918;BME280;4004;42.624;23.386;2022-12-11T09:27:17;92242.59;;;16.07;65.51
7918;BME280;4004;42.624;23.386;2022-12-11T09:29:45;92245.97;;;16.11;64.45
7918;BME280;4004;42.624;23.386;2022-12-11T09:32:12;92234.72;;;16.00;64.11
7918;BME280;4004;42.624;23.386;2022-12-11T09:34:39;92250.13;;;15.90;66.73
7918;BME280;4004;42.624;23.386;2022-12-11T09:37:05;92237.41;;;15.87;67.03
7918;BME280;4004;42.624;23.386;2022-12-11T09:39:32;92219.00;;;15.82;65.41
7918;BME280;4004;42.624;23.386;2022-12-11T09:42:05;92241.09;;;15.80;65.57
7918;BME280;4004;42.624;23.386;2022-12-11T09:44:39;92221.63;;;15.72;67.08
7918;BME280;4004;42.624;23.386;2022-12-11T09:47:17;92235.59;;;15.71;66.37
7918;BME280;4004;42.624;23.386;2022-12-11T09:49:46;92226.91;;;15.63;68.48
7918;BME280;4004;42.624;23.386;2022-12-11T09:52:17;92243.72;;;15.71;69.26
7918;BME280;4004;42.624;23.386;2022-12-11T09:54:48;92236.84;;;15.66;70.07
7918;BME280;4004;42.624;23.386;2022-12-11T09:57:27;92233.28;;;15.69;69.28
7918;BME280;4004;42.624;23.386;2022-12-11T10:00:16;92233.28;;;15.69;70.19
7918;BME280;4004;42.624;23.386;2022-12-11T10:02:59;92236.41;;;15.55;70.53
7918;BME280;4004;42.624;23.386;2022-12-11T10:05:36;92233.38;;;15.53;70.26
7918;BME280;4004;42.624;23.386;2022-12-11T10:08:10;92230.47;;;15.47;71.30
7918;BME280;4004;42.624;23.386;2022-12-11T10:10:42;92229.69;;;15.47;69.83
7918;BME280;4004;42.624;23.386;2022-12-11T10:13:19;92226.47;;;15.52;70.85
7918;BME280;4004;42.624;23.386;2022-12-11T10:15:53;92219.19;;;15.49;71.56
7918;BME280;4004;42.624;23.386;2022-12-11T10:18:24;92212.59;;;15.50;71.94
7918;BME280;4004;42.624;23.386;2022-12-11T10:20:52;92228.28;;;15.55;72.65
7918;BME280;4004;42.624;23.386;2022-12-11T10:23:24;92229.69;;;15.60;74.19
7918;BME280;4004;42.624;23.386;2022-12-11T10:25:55;92232.72;;;15.49;80.20
7918;BME280;4004;42.624;23.386;2022-12-11T10:28:26;92223.25;;;15.15;84.91
7918;BME280;4004;42.624;23.386;2022-12-11T10:31:01;92230.72;;;15.11;88.40
7918;BME280;4004;42.624;23.386;2022-12-11T10:33:34;92212.94;;;14.97;90.45
7918;BME280;4004;42.624;23.386;2022-12-11T10:36:06;92210.53;;;14.86;93.16
7918;BME280;4004;42.624;23.386;2022-12-11T10:38:38;92205.56;;;14.98;93.61
7918;BME280;4004;42.624;23.386;2022-12-11T10:41:11;92214.16;;;15.09;93.04
7918;BME280;4004;42.624;23.386;2022-12-11T10:43:40;92202.38;;;15.28;90.40
7918;BME280;4004;42.624;23.386;2022-12-11T10:46:15;92204.34;;;15.41;83.67
7918;BME280;4004;42.624;23.386;2022-12-11T10:48:46;92201.53;;;15.57;84.17
7918;BME280;4004;42.624;23.386;2022-12-11T10:51:13;92196.03;;;15.61;80.43
7918;BME280;4004;42.624;23.386;2022-12-11T10:53:41;92201.53;;;15.57;82.93
7918;BME280;4004;42.624;23.386;2022-12-11T10:56:10;92203.50;;;15.57;78.57
7918;BME280;4004;42.624;23.386;2022-12-11T10:58:45;92196.78;;;15.61;77.07
7918;BME280;4004;42.624;23.386;2022-12-11T11:01:18;92196.13;;;15.70;81.06
7918;BME280;4004;42.624;23.386;2022-12-11T11:03:53;92178.25;;;15.47;75.63
7918;BME280;4004;42.624;23.386;2022-12-11T11:06:21;92193.75;;;15.59;75.35
7918;BME280;4004;42.624;23.386;2022-12-11T11:08:50;92189.31;;;15.65;74.06
7918;BME280;4004;42.624;23.386;2022-12-11T11:11:24;92191.13;;;15.68;73.10
7918;BME280;4004;42.624;23.386;2022-12-11T11:14:09;92189.88;;;15.73;73.97
7918;BME280;4004;42.624;23.386;2022-12-11T11:16:40;92184.31;;;15.64;79.56
7918;BME280;4004;42.624;23.386;2022-12-11T11:19:17;92185.28;;;15.57;79.78
7918;BME280;4004;42.624;23.386;2022-12-11T11:21:48;92176.94;;;15.51;80.28
7918;BME280;4004;42.624;23.386;2022-12-11T11:24:27;92177.16;;;15.44;85.71
7918;BME280;4004;42.624;23.386;2022-12-11T11:26:55;92172.63;;;15.41;86.77
7918;BME280;4004;42.624;23.386;2022-12-11T11:29:26;92172.94;;;15.30;86.58
7918;BME280;4004;42.624;23.386;2022-12-11T11:31:56;92168.81;;;15.26;90.24
7918;BME280;4004;42.624;23.386;2022-12-11T11:34:24;92141.72;;;14.87;84.26
7918;BME280;4004;42.624;23.386;2022-12-11T11:36:57;92172.50;;;15.19;83.02
7918;BME280;4004;42.624;23.386;2022-12-11T11:39:33;92165.03;;;15.23;83.42
7918;BME280;4004;42.624;23.386;2022-12-11T11:42:05;92169.47;;;15.30;83.17
7918;BME280;4004;42.624;23.386;2022-12-11T11:44:38;92172.06;;;15.33;82.46
7918;BME280;4004;42.624;23.386;2022-12-11T11:47:13;92171.22;;;15.37;78.64
7918;BME280;4004;42.624;23.386;2022-12-11T11:49:48;92165.25;;;15.29;81.00
7918;BME280;4004;42.624;23.386;2022-12-11T11:52:23;92160.34;;;15.11;80.99
7918;BME280;4004;42.624;23.386;2022-12-11T11:54:59;92152.22;;;14.98;81.13
7918;BME280;4004;42.624;23.386;2022-12-11T11:57:35;92150.72;;;14.97;80.71
7918;BME280;4004;42.624;23.386;2022-12-11T12:00:18;92137.50;;;14.99;82.72
7918;BME280;4004;42.624;23.386;2022-12-11T12:02:47;92148.31;;;14.86;86.61
7918;BME280;4004;42.624;23.386;2022-12-11T12:05:16;92139.97;;;14.93;86.07
7918;BME280;4004;42.624;23.386;2022-12-11T12:07:50;92142.69;;;14.93;86.42
7918;BME280;4004;42.624;23.386;2022-12-11T12:10:31;92138.91;;;14.91;89.33
7918;BME280;4004;42.624;23.386;2022-12-11T12:13:05;92138.03;;;14.81;89.32
7918;BME280;4004;42.624;23.386;2022-12-11T12:15:37;92140.50;;;14.76;90.43
7918;BME280;4004;42.624;23.386;2022-12-11T12:18:15;92137.13;;;14.71;90.66
7918;BME280;4004;42.624;23.386;2022-12-11T12:20:50;92139.19;;;14.67;89.72
7918;BME280;4004;42.624;23.386;2022-12-11T12:23:48;92135.03;;;14.63;90.22
7918;BME280;4004;42.624;23.386;2022-12-11T12:26:24;92134.41;;;14.71;87.94
7918;BME280;4004;42.624;23.386;2022-12-11T12:29:02;92129.97;;;14.65;89.48
7918;BME280;4004;42.624;23.386;2022-12-11T12:31:40;92137.94;;;14.56;90.64
7918;BME280;4004;42.624;23.386;2022-12-11T12:34:16;92135.66;;;14.54;87.96
7918;BME280;4004;42.624;23.386;2022-12-11T12:36:52;92144.94;;;14.53;85.56
7918;BME280;4004;42.624;23.386;2022-12-11T12:39:32;92157.22;;;14.58;80.27
7918;BME280;4004;42.624;23.386;2022-12-11T12:42:10;92163.28;;;14.62;78.10
7918;BME280;4004;42.624;23.386;2022-12-11T12:44:49;92153.25;;;14.46;89.20
7918;BME280;4004;42.624;23.386;2022-12-11T12:47:20;92160.03;;;13.92;100.00
7918;BME280;4004;42.624;23.386;2022-12-11T12:49:49;92170.69;;;13.50;100.00
7918;BME280;4004;42.624;23.386;2022-12-11T12:52:20;92160.38;;;13.09;100.00
7918;BME280;4004;42.624;23.386;2022-12-11T12:54:52;92172.31;;;12.71;100.00
7918;BME280;4004;42.624;23.386;2022-12-11T12:57:38;92183.09;;;12.71;100.00
7918;BME280;4004;42.624;23.386;2022-12-11T13:00:08;92193.69;;;12.62;100.00
7918;BME280;4004;42.624;23.386;2022-12-11T13:02:37;92211.13;;;12.34;100.00
7918;BME280;4004;42.624;23.386;2022-12-11T13:05:18;92166.34;;;11.49;100.00
7918;BME280;4004;42.624;23.386;2022-12-11T13:07:48;92217.47;;;11.49;100.00
7918;BME280;4004;42.624;23.386;2022-12-11T13:10:23;92222.41;;;11.27;100.00
7918;BME280;4004;42.624;23.386;2022-12-11T13:12:51;92202.56;;;10.87;100.00
7918;BME280;4004;42.624;23.386;2022-12-11T13:15:34;92194.69;;;10.72;100.00
7918;BME280;4004;42.624;23.386;2022-12-11T13:18:03;92228.09;;;10.37;100.00
7918;BME280;4004;42.624;23.386;2022-12-11T13:20:33;92236.38;;;10.08;100.00
7918;BME280;4004;42.624;23.386;2022-12-11T13:23:17;92244.06;;;10.06;100.00
7918;BME280;4004;42.624;23.386;2022-12-11T13:25:47;92234.09;;;9.62;100.00